Time;durP1;ratioP1;P1;durP2;ratioP2;P2;SDS_P1;SDS_P2;PMS_P1;PMS_P2;Temp;Humidity;BMP_temperature;BMP_pressure;BME280_temperature;BME280_humidity;BME280_pressure;Samples;Min_cycle;Max_cycle;Signal;HPM_P1;HPM_P2
2022/10/18 00:01:10;;;;;;;1.23;1.20;;;10.30;99.90;;;;;;6119723;29;20295;-67
2022/10/18 00:04:15;;;;;;;3.70;1.00;;;10.20;99.90;;;;;;6120503;29;20283;-67
2022/10/18 00:07:22;;;;;;;5.22;1.08;;;10.30;99.90;;;;;;6120016;29;20303;-67
2022/10/18 00:10:27;;;;;;;1.38;1.05;;;10.30;99.90;;;;;;6127359;29;20316;-67
2022/10/18 00:13:32;;;;;;;1.42;0.93;;;10.20;99.90;;;;;;6143951;29;20275;-68
2022/10/18 00:16:37;;;;;;;1.95;1.00;;;10.30;99.90;;;;;;6142373;29;20294;-67
2022/10/18 00:19:42;;;;;;;2.10;1.10;;;10.20;99.90;;;;;;6143650;29;20295;-67
2022/10/18 00:22:49;;;;;;;1.10;1.10;;;10.20;99.90;;;;;;6142922;29;20295;-67
2022/10/18 00:26:03;;;;;;;1.50;1.00;;;10.30;99.90;;;;;;6142727;29;20306;-67
2022/10/18 00:29:13;;;;;;;1.10;1.10;;;10.30;99.90;;;;;;6143499;29;20275;-67
2022/10/18 00:32:17;;;;;;;0.90;0.90;;;10.20;99.90;;;;;;6142634;29;20587;-67
2022/10/18 00:35:22;;;;;;;0.90;0.90;;;10.20;99.90;;;;;;6142672;29;20291;-67
2022/10/18 00:38:28;;;;;;;0.90;0.90;;;10.20;99.90;;;;;;6142726;29;20294;-67
2022/10/18 00:41:36;;;;;;;1.48;0.93;;;10.10;99.90;;;;;;6142502;29;20606;-67
2022/10/18 00:45:15;;;;;;;1.38;1.30;;;10.10;99.90;;;;;;6143122;29;20274;-67
2022/10/18 00:48:21;;;;;;;1.35;1.35;;;10.10;99.90;;;;;;6141564;29;20279;-67
2022/10/18 00:51:29;;;;;;;1.15;0.80;;;10.20;99.90;;;;;;6142240;29;20678;-67
2022/10/18 00:54:38;;;;;;;1.55;0.90;;;10.20;99.90;;;;;;6142961;29;20283;-67
2022/10/18 00:57:44;;;;;;;1.65;0.70;;;10.10;99.90;;;;;;6134318;29;20287;-67
2022/10/18 01:00:49;;;;;;;0.73;0.73;;;10.20;99.90;;;;;;6141694;29;20299;-67
2022/10/18 01:03:54;;;;;;;0.80;0.80;;;10.20;99.90;;;;;;6142213;29;20555;-67
2022/10/18 01:07:06;;;;;;;0.90;0.90;;;10.20;99.90;;;;;;6141557;29;20322;-67
2022/10/18 01:10:26;;;;;;;0.85;0.85;;;10.20;99.90;;;;;;6135409;29;20268;-67
2022/10/18 01:13:42;;;;;;;1.38;1.00;;;10.10;99.90;;;;;;6118552;29;20268;-67
2022/10/18 01:16:54;;;;;;;0.70;0.70;;;10.30;99.90;;;;;;6118198;29;20303;-67
2022/10/18 01:20:30;;;;;;;1.25;0.90;;;10.40;99.90;;;;;;6117780;29;20385;-68
2022/10/18 01:24:15;;;;;;;1.52;1.10;;;10.40;99.90;;;;;;6118745;29;20272;-67
2022/10/18 01:27:52;;;;;;;0.90;0.90;;;10.40;99.90;;;;;;6116882;29;20300;-66
2022/10/18 01:31:00;;;;;;;0.80;0.80;;;10.30;99.90;;;;;;6117804;29;20481;-66
2022/10/18 01:34:08;;;;;;;4.68;1.02;;;10.20;99.90;;;;;;6118368;29;20272;-67
2022/10/18 01:37:17;;;;;;;1.45;1.45;;;10.30;99.90;;;;;;6117186;29;20300;-66
2022/10/18 01:40:24;;;;;;;1.90;1.10;;;10.20;99.90;;;;;;6117583;29;20470;-67
2022/10/18 01:43:30;;;;;;;2.13;0.90;;;10.20;99.90;;;;;;6118145;29;20268;-67
2022/10/18 01:46:38;;;;;;;1.13;1.02;;;10.20;99.90;;;;;;6117442;29;20300;-67
2022/10/18 01:49:43;;;;;;;0.90;0.90;;;10.20;99.90;;;;;;6117404;29;20272;-67
2022/10/18 01:52:49;;;;;;;1.30;1.20;;;10.30;99.90;;;;;;6117282;29;20296;-67
2022/10/18 01:56:20;;;;;;;1.00;1.00;;;10.30;99.90;;;;;;6117443;29;20288;-67
2022/10/18 01:59:39;;;;;;;1.08;0.98;;;10.20;99.90;;;;;;6117387;29;20299;-67
2022/10/18 02:02:49;;;;;;;0.90;0.90;;;10.30;99.90;;;;;;6116868;29;20303;-67
2022/10/18 02:05:58;;;;;;;1.10;1.10;;;10.30;99.90;;;;;;6116680;29;20595;-67
2022/10/18 02:09:08;;;;;;;1.63;1.10;;;10.30;99.90;;;;;;6117276;29;20450;-67
2022/10/18 02:12:14;;;;;;;1.20;1.10;;;10.30;99.90;;;;;;6138756;29;20298;-66
2022/10/18 02:15:23;;;;;;;0.90;0.90;;;10.20;99.90;;;;;;6140505;29;20299;-66
2022/10/18 02:18:36;;;;;;;2.67;1.20;;;10.20;99.90;;;;;;6140577;29;20276;-67
2022/10/18 02:21:43;;;;;;;1.95;0.90;;;10.30;99.90;;;;;;6140385;29;20610;-67
2022/10/18 02:24:53;;;;;;;1.38;0.98;;;10.30;99.90;;;;;;6141188;29;20270;-67
2022/10/18 02:27:59;;;;;;;1.60;1.50;;;10.30;99.90;;;;;;6140144;29;20551;-67
2022/10/18 02:31:11;;;;;;;1.75;1.30;;;10.30;99.90;;;;;;6140158;29;20303;-68
2022/10/18 02:34:22;;;;;;;1.90;1.00;;;10.20;99.90;;;;;;6140720;29;20270;-67
2022/10/18 02:37:30;;;;;;;3.08;1.25;;;10.10;99.90;;;;;;6140268;29;20295;-67
2022/10/18 02:40:35;;;;;;;3.92;1.20;;;10.10;99.90;;;;;;6139594;29;20298;-68
2022/10/18 02:43:40;;;;;;;0.93;0.80;;;10.10;99.90;;;;;;6140730;29;20278;-67
2022/10/18 02:46:45;;;;;;;1.10;0.88;;;10.10;99.90;;;;;;6139940;29;20300;-67
2022/10/18 02:49:51;;;;;;;2.58;1.10;;;10.10;99.90;;;;;;6140495;29;20271;-67
2022/10/18 02:52:56;;;;;;;0.95;0.90;;;10.20;99.90;;;;;;6139495;29;20270;-67
2022/10/18 02:56:02;;;;;;;1.17;0.80;;;10.30;99.90;;;;;;6139905;29;20586;-67
2022/10/18 02:59:07;;;;;;;2.80;1.20;;;10.20;99.90;;;;;;6140437;29;20276;-67
2022/10/18 03:02:13;;;;;;;1.10;1.10;;;10.20;99.90;;;;;;6120888;29;20304;-68
2022/10/18 03:05:19;;;;;;;1.40;1.30;;;10.30;99.90;;;;;;6108525;29;20426;-67
2022/10/18 03:08:24;;;;;;;3.78;1.30;;;10.20;99.90;;;;;;6139132;29;20299;-68
2022/10/18 03:11:29;;;;;;;1.50;1.50;;;10.20;99.90;;;;;;6126733;29;20431;-67
2022/10/18 03:14:34;;;;;;;2.72;1.48;;;10.30;99.90;;;;;;6116079;29;20300;-68
2022/10/18 03:17:39;;;;;;;1.30;1.30;;;10.30;99.90;;;;;;6115805;29;20457;-68
2022/10/18 03:20:45;;;;;;;2.53;1.48;;;10.40;99.90;;;;;;6136019;29;20287;-67
2022/10/18 03:23:50;;;;;;;1.30;1.30;;;10.40;99.90;;;;;;6139755;29;20294;-68
2022/10/18 03:26:55;;;;;;;2.38;1.10;;;10.40;99.90;;;;;;6140125;29;20539;-67
2022/10/18 03:30:00;;;;;;;0.93;0.93;;;10.40;99.90;;;;;;6139438;29;20308;-66
2022/10/18 03:33:05;;;;;;;2.25;1.10;;;10.40;99.90;;;;;;6139698;29;20295;-66
2022/10/18 03:36:13;;;;;;;1.20;1.10;;;10.30;99.90;;;;;;6133362;29;20264;-66
2022/10/18 03:39:18;;;;;;;1.52;1.00;;;10.30;99.90;;;;;;6115535;29;20308;-67
2022/10/18 03:42:22;;;;;;;0.93;0.93;;;10.20;99.90;;;;;;6115119;29;20315;-67
2022/10/18 03:45:27;;;;;;;1.05;0.95;;;10.30;99.90;;;;;;6116049;29;20268;-66
2022/10/18 03:48:35;;;;;;;2.17;0.98;;;10.30;99.90;;;;;;6115477;29;20622;-67
2022/10/18 03:51:41;;;;;;;1.45;1.00;;;10.30;99.90;;;;;;6118741;29;20296;-67
2022/10/18 03:54:46;;;;;;;1.55;1.17;;;10.20;99.90;;;;;;6119930;29;20296;-67
2022/10/18 03:57:51;;;;;;;1.48;1.17;;;10.30;99.90;;;;;;6119399;29;20299;-67
2022/10/18 04:00:56;;;;;;;1.20;1.15;;;10.30;99.90;;;;;;6120207;29;20296;-66
2022/10/18 04:04:01;;;;;;;1.98;1.20;;;10.30;99.90;;;;;;6119790;29;20292;-67
2022/10/18 04:07:07;;;;;;;2.63;1.30;;;10.30;99.90;;;;;;6120265;29;20295;-68
2022/10/18 04:10:12;;;;;;;1.50;1.50;;;10.30;99.90;;;;;;6126042;29;20267;-67
2022/10/18 04:13:17;;;;;;;1.27;1.27;;;10.20;99.90;;;;;;6143168;29;20303;-67
2022/10/18 04:16:21;;;;;;;1.85;1.75;;;10.20;99.90;;;;;;6143821;29;20574;-67
2022/10/18 04:19:27;;;;;;;1.55;1.50;;;10.20;99.90;;;;;;6142973;29;20295;-67
2022/10/18 04:22:33;;;;;;;3.42;2.10;;;10.10;99.90;;;;;;6143025;29;20299;-67
2022/10/18 04:25:38;;;;;;;3.42;2.17;;;10.20;99.90;;;;;;6143629;29;20271;-67
2022/10/18 04:28:44;;;;;;;2.22;2.13;;;10.10;99.90;;;;;;6143156;29;20303;-67
2022/10/18 04:31:49;;;;;;;2.17;2.08;;;10.20;99.90;;;;;;6136481;29;20280;-67
2022/10/18 04:34:54;;;;;;;1.88;1.77;;;10.20;99.90;;;;;;6142831;29;20295;-66
2022/10/18 04:38:00;;;;;;;1.98;1.90;;;10.30;99.90;;;;;;6142864;29;20298;-66
2022/10/18 04:41:05;;;;;;;1.67;1.67;;;10.40;99.90;;;;;;6142749;29;20299;-67
2022/10/18 04:44:11;;;;;;;1.85;1.75;;;10.40;99.90;;;;;;6142650;29;20295;-66
2022/10/18 04:47:17;;;;;;;2.63;1.85;;;10.30;99.90;;;;;;6142086;29;20272;-67
2022/10/18 04:50:22;;;;;;;2.10;1.80;;;10.30;99.90;;;;;;6142693;29;20272;-67
2022/10/18 04:53:29;;;;;;;2.03;1.92;;;10.20;99.90;;;;;;6142612;29;20331;-66
2022/10/18 04:56:34;;;;;;;2.00;1.90;;;10.30;99.90;;;;;;6142893;29;20272;-66
2022/10/18 04:59:39;;;;;;;1.73;1.63;;;10.30;99.90;;;;;;6142297;29;20303;-66
2022/10/18 05:02:44;;;;;;;2.08;2.03;;;10.20;99.90;;;;;;6142064;29;20340;-66
2022/10/18 05:05:50;;;;;;;2.08;1.98;;;10.10;99.90;;;;;;6142605;29;20303;-66
2022/10/18 05:09:09;;;;;;;5.97;2.35;;;10.20;99.90;;;;;;6142234;29;20310;-67
2022/10/18 05:12:14;;;;;;;2.22;1.88;;;10.00;99.90;;;;;;6119961;29;20268;-66
2022/10/18 05:15:19;;;;;;;2.00;2.00;;;10.00;99.90;;;;;;6118426;29;20268;-67
2022/10/18 05:18:24;;;;;;;2.22;2.05;;;10.00;99.90;;;;;;6118223;29;20299;-67
2022/10/18 05:21:29;;;;;;;2.45;1.65;;;10.10;99.90;;;;;;6118256;29;20448;-67
2022/10/18 05:24:35;;;;;;;1.75;1.75;;;9.90;99.90;;;;;;6118211;29;20307;-66
2022/10/18 05:27:40;;;;;;;3.72;1.80;;;9.90;99.90;;;;;;6117823;29;20295;-66
2022/10/18 05:30:44;;;;;;;1.70;1.70;;;10.00;99.90;;;;;;6118385;29;20276;-67
2022/10/18 05:33:50;;;;;;;1.70;1.70;;;10.00;99.90;;;;;;6117602;29;20299;-67
2022/10/18 05:36:54;;;;;;;1.55;1.45;;;10.10;99.90;;;;;;6118203;29;20276;-65
2022/10/18 05:40:00;;;;;;;1.38;1.38;;;10.00;99.90;;;;;;6117399;29;20303;-66
2022/10/18 05:43:06;;;;;;;1.38;1.35;;;10.00;99.90;;;;;;6117439;29;20303;-66
2022/10/18 05:46:14;;;;;;;4.75;1.88;;;10.00;99.90;;;;;;6118191;29;20272;-66
2022/10/18 05:49:19;;;;;;;2.25;1.70;;;10.00;99.90;;;;;;6117396;29;20296;-66
2022/10/18 05:52:24;;;;;;;1.90;1.80;;;10.10;99.90;;;;;;6117088;29;20308;-66
2022/10/18 05:55:30;;;;;;;3.03;1.67;;;9.90;99.90;;;;;;6117537;29;20268;-66
2022/10/18 05:58:35;;;;;;;1.73;1.70;;;9.90;99.90;;;;;;6116663;29;20304;-67
2022/10/18 06:01:42;;;;;;;1.77;1.70;;;9.80;99.90;;;;;;6084698;29;20225;-67
2022/10/18 06:04:47;;;;;;;1.90;1.90;;;9.90;99.90;;;;;;6116870;29;20303;-66
2022/10/18 06:07:52;;;;;;;3.53;1.88;;;10.00;99.90;;;;;;6116785;29;20304;-67
2022/10/18 06:10:58;;;;;;;1.48;1.35;;;10.00;99.90;;;;;;6128854;29;20268;-67
2022/10/18 06:14:03;;;;;;;1.52;1.40;;;10.10;99.90;;;;;;6139819;29;20303;-67
2022/10/18 06:17:08;;;;;;;1.30;1.30;;;10.20;99.90;;;;;;6138946;29;20559;-67
2022/10/18 06:20:13;;;;;;;1.40;1.30;;;10.20;99.90;;;;;;6123529;29;20271;-67
2022/10/18 06:23:19;;;;;;;1.10;1.10;;;10.30;99.90;;;;;;6140439;29;20303;-67
2022/10/18 06:26:26;;;;;;;1.52;1.42;;;10.30;99.90;;;;;;6140671;29;20280;-67
2022/10/18 06:29:31;;;;;;;1.95;1.40;;;10.30;99.90;;;;;;6140223;29;20299;-67
2022/10/18 06:32:36;;;;;;;1.30;1.30;;;10.40;99.90;;;;;;6140314;29;20465;-65
2022/10/18 06:35:41;;;;;;;1.30;1.30;;;10.40;99.90;;;;;;6140740;29;20271;-66
2022/10/18 06:38:46;;;;;;;1.27;1.27;;;10.40;99.90;;;;;;6132535;29;20295;-67
2022/10/18 06:41:52;;;;;;;1.00;1.00;;;10.40;99.90;;;;;;6140182;29;20291;-67
2022/10/18 06:44:59;;;;;;;1.20;1.20;;;10.40;99.90;;;;;;6140237;29;20299;-67
2022/10/18 06:48:04;;;;;;;1.30;0.93;;;10.40;99.90;;;;;;6140007;29;20304;-67
2022/10/18 06:51:10;;;;;;;0.90;0.90;;;10.40;99.90;;;;;;6140108;29;20467;-67
2022/10/18 06:54:16;;;;;;;3.40;1.00;;;10.40;99.90;;;;;;6139627;29;20298;-66
2022/10/18 06:57:24;;;;;;;1.00;1.00;;;10.40;99.90;;;;;;6139422;29;20310;-67
2022/10/18 07:00:29;;;;;;;0.90;0.90;;;10.40;99.90;;;;;;6140427;29;20447;-67
2022/10/18 07:03:34;;;;;;;1.17;1.17;;;10.40;99.90;;;;;;6139455;29;20311;-67
2022/10/18 07:06:39;;;;;;;0.80;0.80;;;10.50;99.90;;;;;;6140169;29;20299;-67
2022/10/18 07:09:44;;;;;;;2.40;1.00;;;10.60;99.90;;;;;;6137059;29;20303;-67
2022/10/18 07:12:51;;;;;;;1.30;1.00;;;10.60;99.90;;;;;;6115897;29;20436;-67
2022/10/18 07:16:13;;;;;;;1.50;0.90;;;10.60;99.90;;;;;;6115885;29;20572;-67
2022/10/18 07:19:22;;;;;;;1.00;0.90;;;10.60;99.90;;;;;;6116118;29;20303;-67
2022/10/18 07:22:27;;;;;;;0.90;0.90;;;10.60;99.90;;;;;;6115626;29;20460;-66
2022/10/18 07:25:34;;;;;;;1.08;0.90;;;10.60;99.90;;;;;;6117564;29;20276;-67
2022/10/18 07:28:40;;;;;;;1.05;0.90;;;10.60;99.90;;;;;;6120580;29;20295;-66
2022/10/18 07:31:45;;;;;;;0.95;0.95;;;10.70;99.90;;;;;;6120851;29;20271;-67
2022/10/18 07:34:50;;;;;;;1.52;1.20;;;10.70;99.90;;;;;;6118826;29;20307;-67
2022/10/18 07:37:56;;;;;;;1.00;1.00;;;10.70;99.90;;;;;;6120088;29;20303;-67
2022/10/18 07:41:02;;;;;;;0.90;0.90;;;10.70;99.90;;;;;;6120924;29;20280;-67
2022/10/18 07:44:08;;;;;;;0.70;0.70;;;10.80;99.90;;;;;;6120072;29;20575;-67
2022/10/18 07:47:13;;;;;;;0.88;0.82;;;10.70;99.90;;;;;;6120204;29;20350;-67
2022/10/18 07:50:18;;;;;;;0.80;0.80;;;10.80;99.90;;;;;;6120881;29;20271;-67
2022/10/18 07:53:23;;;;;;;0.85;0.85;;;10.70;99.90;;;;;;6120133;29;20303;-67
2022/10/18 07:56:28;;;;;;;2.20;0.75;;;10.80;99.90;;;;;;6120299;29;20276;-67
2022/10/18 07:59:35;;;;;;;0.70;0.70;;;10.70;99.90;;;;;;6119912;29;20300;-66
2022/10/18 08:02:40;;;;;;;0.70;0.70;;;10.70;99.90;;;;;;6119583;29;20292;-67
2022/10/18 08:05:51;;;;;;;0.60;0.60;;;10.80;99.90;;;;;;6120326;29;20328;-66
2022/10/18 08:08:56;;;;;;;2.20;0.75;;;10.70;99.90;;;;;;6119620;29;20309;-66
2022/10/18 08:12:01;;;;;;;0.73;0.73;;;10.70;99.90;;;;;;6139710;29;20271;-66
2022/10/18 08:15:08;;;;;;;0.85;0.85;;;10.80;99.90;;;;;;6142788;29;20274;-66
2022/10/18 08:18:16;;;;;;;0.90;0.90;;;10.80;99.90;;;;;;6143196;29;20295;-66
2022/10/18 08:21:22;;;;;;;0.90;0.90;;;10.80;99.90;;;;;;6143387;29;20275;-67
2022/10/18 08:24:27;;;;;;;0.90;0.90;;;10.90;99.90;;;;;;6142830;29;20315;-67
2022/10/18 08:27:32;;;;;;;2.30;0.90;;;10.90;99.90;;;;;;6143080;29;20310;-67
2022/10/18 08:30:38;;;;;;;0.80;0.80;;;10.90;99.90;;;;;;6143340;29;20275;-66
2022/10/18 08:33:44;;;;;;;0.70;0.70;;;11.00;99.90;;;;;;6142731;29;20336;-67
2022/10/18 08:36:49;;;;;;;1.98;0.82;;;11.10;99.90;;;;;;6142850;29;20275;-67
2022/10/18 08:39:54;;;;;;;1.08;0.60;;;11.10;99.90;;;;;;6142753;29;20634;-67
2022/10/18 08:43:04;;;;;;;1.55;0.82;;;11.10;99.90;;;;;;6142163;29;20294;-67
2022/10/18 08:46:14;;;;;;;0.95;0.93;;;11.20;99.90;;;;;;6143194;29;20267;-66
2022/10/18 08:49:27;;;;;;;0.80;0.80;;;11.10;99.90;;;;;;6142597;29;20315;-67
2022/10/18 08:52:35;;;;;;;1.00;1.00;;;11.10;99.90;;;;;;6142216;29;20291;-67
2022/10/18 08:55:45;;;;;;;0.95;0.95;;;11.10;99.90;;;;;;6142393;29;20563;-66
2022/10/18 08:58:50;;;;;;;0.90;0.90;;;11.30;99.90;;;;;;6122086;29;20305;-67
2022/10/18 09:02:04;;;;;;;1.05;1.05;;;11.20;99.90;;;;;;6095923;29;20276;-67
2022/10/18 09:05:21;;;;;;;1.13;1.13;;;11.10;99.90;;;;;;6094290;29;20301;-67
2022/10/18 09:08:53;;;;;;;2.00;1.25;;;11.10;99.90;;;;;;6071191;29;20609;-66
2022/10/18 09:12:10;;;;;;;1.33;1.30;;;11.10;99.90;;;;;;6091414;29;20448;-66
2022/10/18 09:15:17;;;;;;;1.38;1.00;;;11.10;99.90;;;;;;6094596;29;20280;-67
2022/10/18 09:18:42;;;;;;;0.90;0.90;;;11.10;99.90;;;;;;6094378;29;20304;-67
2022/10/18 09:21:52;;;;;;;1.45;1.15;;;11.20;99.90;;;;;;6095097;29;20277;-66
2022/10/18 09:25:06;;;;;;;1.10;1.10;;;11.20;99.90;;;;;;6094437;29;20300;-67
2022/10/18 09:28:25;;;;;;;0.85;0.85;;;11.10;99.90;;;;;;6094512;29;20305;-67
2022/10/18 09:31:42;;;;;;;1.00;1.00;;;11.20;99.90;;;;;;6094903;29;20273;-66
2022/10/18 09:34:52;;;;;;;1.10;1.10;;;11.20;99.90;;;;;;6070299;29;20308;-67
2022/10/18 09:38:03;;;;;;;0.90;0.90;;;11.20;99.90;;;;;;6094491;29;20384;-67
2022/10/18 09:41:15;;;;;;;4.65;1.15;;;11.30;99.90;;;;;;6094261;29;20277;-67
2022/10/18 09:44:24;;;;;;;1.40;1.20;;;11.30;99.90;;;;;;6094114;29;20396;-67
2022/10/18 09:47:35;;;;;;;2.72;1.10;;;11.40;99.90;;;;;;6093279;29;20296;-66
2022/10/18 09:50:44;;;;;;;0.98;0.98;;;11.40;99.90;;;;;;6094456;29;20398;-68
2022/10/18 09:54:07;;;;;;;1.75;1.40;;;11.50;99.90;;;;;;6093624;29;20300;-68
2022/10/18 09:57:18;;;;;;;1.42;1.42;;;11.50;99.90;;;;;;6093829;29;20340;-66
2022/10/18 10:00:28;;;;;;;1.17;1.10;;;11.40;99.90;;;;;;6094539;29;20281;-66
2022/10/18 10:03:35;;;;;;;0.98;0.98;;;11.50;99.90;;;;;;6093795;29;20498;-67
2022/10/18 10:06:50;;;;;;;3.47;1.20;;;11.30;99.90;;;;;;6094289;29;20301;-67
2022/10/18 10:09:58;;;;;;;1.13;1.13;;;11.40;99.90;;;;;;6097023;29;20300;-67
2022/10/18 10:13:06;;;;;;;3.03;1.30;;;11.40;99.90;;;;;;6117138;29;20295;-67
2022/10/18 10:16:12;;;;;;;1.00;1.00;;;11.40;99.90;;;;;;6117762;29;20271;-66
2022/10/18 10:19:27;;;;;;;1.13;1.13;;;11.40;99.90;;;;;;6116951;29;20315;-67
2022/10/18 10:22:36;;;;;;;2.92;1.05;;;11.40;99.90;;;;;;6116870;29;20296;-66
2022/10/18 10:25:41;;;;;;;3.00;1.13;;;11.40;99.90;;;;;;6117286;29;20380;-67
2022/10/18 10:28:47;;;;;;;1.38;1.17;;;11.50;99.90;;;;;;6117134;29;20297;-67
2022/10/18 10:32:03;;;;;;;3.92;1.20;;;11.50;99.90;;;;;;6117142;29;20268;-67
2022/10/18 10:35:22;;;;;;;0.90;0.90;;;11.50;99.90;;;;;;6116206;29;20302;-67
2022/10/18 10:39:05;;;;;;;1.00;1.00;;;11.50;99.90;;;;;;6116894;29;20299;-67
2022/10/18 10:42:14;;;;;;;1.20;1.20;;;11.50;99.90;;;;;;6116686;29;20280;-67
2022/10/18 10:45:20;;;;;;;1.05;1.02;;;11.60;99.90;;;;;;6116911;29;20291;-67
2022/10/18 10:48:26;;;;;;;1.00;1.00;;;11.60;99.90;;;;;;6116712;29;20295;-67
2022/10/18 10:51:39;;;;;;;1.85;0.90;;;11.60;99.90;;;;;;6116817;29;20268;-67
2022/10/18 10:54:46;;;;;;;3.30;1.13;;;11.60;99.90;;;;;;6116370;29;20299;-67
2022/10/18 10:57:56;;;;;;;1.08;0.98;;;11.60;99.90;;;;;;6116449;29;20300;-66
2022/10/18 11:01:28;;;;;;;6.32;1.27;;;11.70;99.90;;;;;;6123211;29;20271;-66
2022/10/18 11:04:33;;;;;;;1.20;1.20;;;11.60;99.90;;;;;;6123878;29;20492;-66
2022/10/18 11:07:43;;;;;;;1.77;1.08;;;11.60;99.90;;;;;;6142324;29;20471;-66
2022/10/18 11:10:59;;;;;;;1.73;1.10;;;11.70;99.90;;;;;;6137726;29;20264;-67
2022/10/18 11:14:09;;;;;;;4.03;1.10;;;11.80;99.90;;;;;;6124129;29;20292;-67
2022/10/18 11:17:36;;;;;;;1.17;1.17;;;11.70;99.90;;;;;;6123717;29;20291;-67
2022/10/18 11:20:44;;;;;;;3.80;1.55;;;11.60;99.90;;;;;;6124038;29;20271;-67
2022/10/18 11:23:49;;;;;;;1.45;1.00;;;11.70;99.90;;;;;;6123766;29;20319;-67
2022/10/18 11:27:01;;;;;;;3.90;1.27;;;11.70;99.90;;;;;;6124038;29;20291;-68
2022/10/18 11:30:39;;;;;;;2.95;1.20;;;11.70;99.90;;;;;;6123494;29;20272;-67
2022/10/18 11:34:15;;;;;;;0.80;0.80;;;11.80;99.90;;;;;;6123724;29;20300;-68
2022/10/18 11:37:49;;;;;;;1.00;1.00;;;11.70;99.90;;;;;;6123961;29;20275;-67
2022/10/18 11:41:13;;;;;;;4.50;1.02;;;11.70;99.90;;;;;;6124374;29;20276;-67
2022/10/18 11:44:27;;;;;;;3.60;1.00;;;11.70;99.90;;;;;;6123876;29;20307;-67
2022/10/18 11:47:38;;;;;;;2.10;0.93;;;11.60;99.90;;;;;;6123760;29;20305;-67
2022/10/18 11:50:51;;;;;;;3.30;1.10;;;11.60;99.90;;;;;;6124182;29;20280;-67
2022/10/18 11:54:13;;;;;;;1.23;1.10;;;11.70;99.90;;;;;;6123603;29;20296;-66
2022/10/18 11:57:36;;;;;;;0.85;0.85;;;11.70;99.90;;;;;;6123450;29;20381;-66
2022/10/18 12:00:50;;;;;;;0.95;0.95;;;11.50;99.90;;;;;;6124200;29;20268;-68
2022/10/18 12:04:02;;;;;;;1.00;1.00;;;11.50;99.90;;;;;;6123069;29;20299;-66
2022/10/18 12:07:09;;;;;;;0.82;0.80;;;11.50;99.90;;;;;;6122838;29;20595;-67
2022/10/18 12:10:18;;;;;;;1.85;0.77;;;11.50;99.90;;;;;;6129654;29;20275;-66
2022/10/18 12:13:48;;;;;;;1.10;1.10;;;11.50;99.90;;;;;;6126386;29;20295;-66
2022/10/18 12:16:57;;;;;;;1.30;1.00;;;11.50;99.90;;;;;;6143495;29;20275;-67
2022/10/18 12:20:27;;;;;;;1.50;1.00;;;11.40;99.90;;;;;;6142717;29;20271;-67
2022/10/18 12:23:42;;;;;;;0.85;0.85;;;11.40;99.90;;;;;;6143221;29;20295;-67
2022/10/18 12:27:00;;;;;;;1.10;1.10;;;11.40;99.90;;;;;;6143584;29;20296;-68
2022/10/18 12:30:11;;;;;;;0.70;0.70;;;11.40;99.90;;;;;;6142760;29;20275;-67
2022/10/18 12:33:25;;;;;;;0.70;0.70;;;11.40;99.90;;;;;;6142959;29;20294;-67
2022/10/18 12:36:52;;;;;;;2.67;0.93;;;11.50;99.90;;;;;;6143428;29;20462;-67
2022/10/18 12:39:59;;;;;;;1.55;0.90;;;11.60;99.90;;;;;;6142600;29;20299;-67
2022/10/18 12:43:31;;;;;;;1.05;1.05;;;11.70;99.90;;;;;;6142539;29;20303;-66
2022/10/18 12:46:48;;;;;;;1.58;0.90;;;11.70;99.90;;;;;;6143076;29;20295;-66
2022/10/18 12:49:59;;;;;;;2.33;1.10;;;11.70;99.90;;;;;;6142572;29;20303;-67
2022/10/18 12:53:17;;;;;;;0.98;0.98;;;11.60;99.90;;;;;;6142377;29;20323;-67
2022/10/18 12:56:40;;;;;;;1.00;1.00;;;11.40;99.90;;;;;;6142589;29;20555;-67
2022/10/18 12:59:45;;;;;;;1.00;1.00;;;11.60;99.90;;;;;;6141897;29;20295;-67
2022/10/18 13:04:00;;;;;;;1.00;1.00;;;11.50;99.90;;;;;;6142126;29;20287;-68
2022/10/18 13:07:21;;;;;;;0.73;0.73;;;11.50;99.90;;;;;;6142216;29;20307;-68
2022/10/18 13:10:37;;;;;;;0.73;0.73;;;11.40;99.90;;;;;;6134763;29;20268;-66
2022/10/18 13:13:52;;;;;;;0.93;0.80;;;11.50;99.90;;;;;;6118622;29;20296;-67
2022/10/18 13:17:02;;;;;;;0.90;0.90;;;11.40;99.90;;;;;;6119014;29;20280;-66
2022/10/18 13:20:21;;;;;;;0.85;0.85;;;11.50;99.90;;;;;;6117729;29;20276;-66
2022/10/18 13:23:42;;;;;;;0.82;0.80;;;11.60;99.90;;;;;;6117038;29;20311;-66
2022/10/18 13:27:04;;;;;;;0.80;0.80;;;11.60;99.90;;;;;;6118743;29;20288;-66
2022/10/18 13:30:42;;;;;;;0.98;0.98;;;11.50;99.90;;;;;;6117410;29;20584;-66
2022/10/18 13:33:47;;;;;;;0.90;0.90;;;11.40;99.90;;;;;;6118172;29;20391;-67
2022/10/18 13:36:58;;;;;;;1.05;1.05;;;11.40;99.90;;;;;;6118484;29;20559;-67
2022/10/18 13:40:24;;;;;;;2.60;1.20;;;11.40;99.90;;;;;;6117328;29;20304;-66
2022/10/18 13:44:18;;;;;;;1.40;1.15;;;11.30;99.90;;;;;;6117182;29;20296;-66
2022/10/18 13:47:38;;;;;;;1.00;1.00;;;11.30;99.90;;;;;;6117392;29;20296;-68
2022/10/18 13:50:43;;;;;;;1.15;1.10;;;11.30;99.90;;;;;;6117556;29;20277;-67
2022/10/18 13:53:55;;;;;;;0.93;0.93;;;11.30;99.90;;;;;;6117339;29;20308;-66
2022/10/18 13:57:17;;;;;;;0.98;0.98;;;11.20;99.90;;;;;;6117539;29;20280;-66
2022/10/18 14:00:44;;;;;;;0.80;0.80;;;11.20;99.90;;;;;;6117374;29;20277;-67
2022/10/18 14:04:57;;;;;;;0.82;0.82;;;11.30;99.90;;;;;;6110456;29;20297;-66
2022/10/18 14:08:28;;;;;;;0.90;0.90;;;11.30;99.90;;;;;;6065957;29;20308;-67
2022/10/18 14:11:39;;;;;;;2.47;0.80;;;11.30;99.90;;;;;;6110136;29;20268;-65
2022/10/18 14:14:58;;;;;;;1.00;1.00;;;11.40;99.90;;;;;;6117327;29;20387;-67
2022/10/18 14:18:06;;;;;;;0.93;0.90;;;11.30;99.90;;;;;;6116852;29;20592;-67
2022/10/18 14:21:19;;;;;;;1.00;1.00;;;11.30;99.90;;;;;;6117232;29;20268;-67
2022/10/18 14:24:27;;;;;;;1.05;1.05;;;11.20;99.90;;;;;;6116725;29;20295;-67
2022/10/18 14:27:32;;;;;;;1.17;0.90;;;11.30;99.90;;;;;;6116736;29;20295;-67
2022/10/18 14:30:55;;;;;;;1.00;1.00;;;11.30;99.90;;;;;;6117355;29;20272;-67
2022/10/18 14:34:00;;;;;;;0.90;0.90;;;11.40;99.90;;;;;;6110608;29;20300;-67
2022/10/18 14:37:05;;;;;;;0.95;0.95;;;11.40;99.90;;;;;;6116504;29;20276;-68
2022/10/18 14:40:32;;;;;;;2.30;1.08;;;11.30;99.90;;;;;;6117318;29;20272;-67
2022/10/18 14:43:37;;;;;;;1.00;1.00;;;11.30;99.90;;;;;;6116330;29;20296;-66
2022/10/18 14:46:45;;;;;;;1.00;1.00;;;11.10;99.90;;;;;;6116609;29;20272;-67
2022/10/18 14:49:53;;;;;;;0.98;0.98;;;10.90;99.90;;;;;;6109280;29;20592;-67
2022/10/18 14:52:59;;;;;;;1.10;1.10;;;10.90;99.90;;;;;;6116249;29;20307;-67
2022/10/18 14:56:04;;;;;;;1.17;1.17;;;11.00;99.90;;;;;;6116693;29;20551;-66
2022/10/18 14:59:15;;;;;;;1.63;1.40;;;10.90;99.90;;;;;;6116384;29;20295;-66
2022/10/18 15:02:25;;;;;;;1.27;1.27;;;10.90;99.90;;;;;;6116434;29;20588;-66
2022/10/18 15:05:30;;;;;;;1.48;1.38;;;10.90;99.90;;;;;;6116961;29;20280;-66
2022/10/18 15:08:38;;;;;;;1.60;1.50;;;11.00;99.90;;;;;;6139438;29;20303;-67
2022/10/18 15:11:45;;;;;;;1.42;1.42;;;10.90;99.90;;;;;;6122730;29;20449;-67
2022/10/18 15:14:50;;;;;;;1.40;1.40;;;10.90;99.90;;;;;;6115755;29;20295;-66
2022/10/18 15:17:57;;;;;;;1.90;1.58;;;11.00;99.90;;;;;;6115882;29;20303;-66
2022/10/18 15:21:10;;;;;;;1.10;1.10;;;11.00;99.90;;;;;;6116749;29;20276;-67
2022/10/18 15:24:31;;;;;;;1.35;1.35;;;11.00;99.90;;;;;;6115771;29;20586;-67
2022/10/18 15:27:38;;;;;;;1.20;1.20;;;10.90;99.90;;;;;;6115927;29;20595;-67
2022/10/18 15:30:43;;;;;;;1.30;1.30;;;10.90;99.90;;;;;;6116483;29;20433;-67
2022/10/18 15:33:50;;;;;;;1.60;1.50;;;10.80;99.90;;;;;;6115588;29;20295;-68
2022/10/18 15:36:56;;;;;;;1.30;1.30;;;10.70;99.90;;;;;;6116389;29;20272;-67
2022/10/18 15:40:36;;;;;;;1.70;1.60;;;10.70;99.90;;;;;;6116100;29;20303;-67
2022/10/18 15:43:41;;;;;;;1.10;1.10;;;10.80;99.90;;;;;;6115837;29;20296;-68
2022/10/18 15:46:47;;;;;;;1.27;1.15;;;10.70;99.90;;;;;;6117787;29;20276;-67
2022/10/18 15:49:57;;;;;;;1.10;1.10;;;10.70;99.90;;;;;;6120154;29;20300;-66
2022/10/18 15:53:41;;;;;;;1.20;1.20;;;10.60;99.90;;;;;;6119951;29;20482;-66
2022/10/18 15:56:46;;;;;;;1.23;1.20;;;10.60;99.90;;;;;;6113259;29;20273;-66
2022/10/18 15:59:54;;;;;;;1.92;1.02;;;10.60;99.90;;;;;;6120012;29;20600;-67
2022/10/18 16:02:59;;;;;;;2.15;1.25;;;10.60;99.90;;;;;;6119793;29;20587;-67
2022/10/18 16:06:08;;;;;;;1.52;1.30;;;10.60;99.90;;;;;;6120156;29;20300;-66
2022/10/18 16:09:18;;;;;;;1.10;1.10;;;10.60;99.90;;;;;;6119877;29;20307;-66
2022/10/18 16:12:22;;;;;;;1.35;1.33;;;10.70;99.90;;;;;;6142023;29;20547;-67
2022/10/18 16:15:28;;;;;;;1.42;1.10;;;10.70;99.90;;;;;;6143836;29;20271;-67
2022/10/18 16:18:33;;;;;;;1.55;1.55;;;10.60;99.90;;;;;;6143205;29;20302;-68
2022/10/18 16:21:39;;;;;;;1.63;1.63;;;10.60;99.90;;;;;;6143827;29;20267;-68
2022/10/18 16:24:44;;;;;;;1.23;1.10;;;10.60;99.90;;;;;;6143158;29;20299;-65
2022/10/18 16:27:49;;;;;;;1.25;1.25;;;10.60;99.90;;;;;;6142750;29;20299;-66
2022/10/18 16:30:57;;;;;;;2.50;1.10;;;10.60;99.90;;;;;;6143282;29;20275;-67
2022/10/18 16:34:03;;;;;;;3.75;1.42;;;10.50;99.90;;;;;;6142479;29;20300;-66